• Join FlightAware (Why Join?)
  • Login
  • US Flag 
10:59AM EST


 

Airport Tracker/Info


-or-


 

Live Flight TrackerFlight Track Log ✈ DAL2522 ✈ 16-Apr-2014 ✈ KXNA - KATL

Flight Track Log - Related Links

Times and Time Zones

All times are in EDT time to prevent confusion due to time zone crossing. See the DAL2522 flight status page for this flight to view local times or setup timezone preferences in your user account.

Time Position Orientation Groundspeed Altitude Reporting Facility
EDT Latitude Longitude Course Direction KTS MPH feet Rate Location/Type
07:33AM 36.2017 -94.2131 112° Southeast 244 281 4,900  Level Memphis Center
07:34AM 36.1912 -93.8990 109° East  Level Estimated
07:34AM 36.1769 -94.1222 109° East 270 311 7,300  Level Memphis Center
07:35AM 36.1608 -93.7630 107° East  Level Estimated
07:35AM 36.1556 -94.0347 107° East 287 330 9,500  Level Memphis Center
07:36AM 36.1302 -93.6271 112° Southeast  Level Estimated
07:36AM 36.1192 -93.9083 110° East 324 373 11,100  Level Memphis Center
07:37AM 36.0745 -93.5040 119° Southeast  Level FlightAware Approximate
07:37AM 36.0892 -93.7833 107° East 368 423 12,800  Level Memphis Center
07:38AM 36.0440 -93.3682 112° Southeast  Level Estimated
07:38AM 36.0547 -93.6564 109° East 385 443 14,700  Level Memphis Center
07:39AM 36.0192 -93.5236 108° East 401 461 16,700 1,820 Climbing Memphis Center
07:40AM 35.9831 -93.3842 108° East 419 482 18,400 1,561 Climbing Memphis Center
07:41AM 35.9442 -93.2425 109° East 430 495 19,900 1,463 Climbing Memphis Center
07:42AM 35.9044 -93.0947 108° East 446 513 21,400 1,475 Climbing Memphis Center
07:43AM 35.8628 -92.9411 108° East 463 533 22,900 1,623 Climbing Memphis Center
07:44AM 35.8206 -92.7833 108° East 477 549 24,700 1,561 Climbing Memphis Center
07:45AM 35.7767 -92.6253 109° East 480 552 26,100 1,220 Climbing Memphis Center
07:46AM 35.7325 -92.4647 109° East 485 558 27,200 1,279 Climbing Memphis Center
07:47AM 35.6875 -92.3011 109° East 496 571 28,700 1,574 Climbing Memphis Center
07:48AM 35.6397 -92.1278 109° East 497 572 30,400 1,561 Climbing Memphis Center
07:49AM 35.5889 -91.9494 109° East 496 571 31,900 1,317 Climbing Memphis Center
07:50AM 35.5461 -91.7906 108° East 495 570 33,100 1,131 Climbing Memphis Center
07:51AM 35.4997 -91.6325 110° East 494 568 34,200 927 Climbing Memphis Center
07:52AM 35.4547 -91.4733 109° East 494 568 35,000 390 Climbing Memphis Center
07:53AM 35.4114 -91.3153 109° East 493 567 35,000  Level Memphis Center
07:54AM 35.3658 -91.1581 110° East 493 567 35,000  Level Memphis Center
07:55AM 35.3158 -90.9919 110° East 491 565 35,000  Level Memphis Center
07:56AM 35.2711 -90.8375 109° East 486 559 35,000  Level Memphis Center
07:57AM 35.2244 -90.6839 110° East 486 559 35,000  Level Memphis Center
07:58AM 35.1792 -90.5308 110° East 485 558 35,000  Level Memphis Center
07:59AM 35.1336 -90.3775 110° East 485 558 35,000  Level Memphis Center
08:00AM 35.0883 -90.2247 110° East 483 556 35,000  Level Memphis Center
08:01AM 35.0339 -90.0419 110° East 482 555 35,000  Level Memphis Center
08:02AM 35.0011 -89.8822 104° East 484 557 35,000  Level Memphis Center
08:03AM 34.9750 -89.7167 101° East 484 557 35,000  Level Memphis Center
08:04AM 34.9489 -89.5522 101° East 484 557 35,000  Level Memphis Center
08:05AM 34.9236 -89.3903 101° East 484 557 35,000  Level Memphis Center
08:06AM 34.8983 -89.2294 101° East 484 557 35,000  Level Memphis Center
08:07AM 34.8728 -89.0694 101° East 484 557 35,000  Level Memphis Center
08:08AM 34.8475 -88.9086 101° East 484 557 35,000  Level Memphis Center
08:09AM 34.8211 -88.7472 101° East 484 557 35,000  Level Memphis Center
08:10AM 34.7956 -88.5872 101° East 484 557 35,000  Level Memphis Center
08:11AM 34.7661 -88.4092 101° East 484 557 35,000  Level Memphis Center
08:13AM 34.7389 -88.2489 102° East 484 557 35,000  Level Memphis Center
08:14AM 34.7122 -88.0875 101° East 484 557 35,000  Level Memphis Center
08:15AM 34.6850 -87.9272 102° East 484 557 35,000  Level Memphis Center
08:16AM 34.6578 -87.7667 102° East 484 557 35,000 -244 Level Memphis Center
08:17AM 34.6300 -87.6042 102° East 484 557 34,500 -823 Descending Memphis Center
08:18AM 34.6022 -87.4403 102° East 484 557 33,300 -732 Descending Memphis Center
08:19AM 34.5725 -87.2728 102° East 485 558 33,000 -146 Descending Memphis Center
08:20AM 34.5392 -87.0836 102° East 485 558 33,000  Level Memphis Center
08:21AM 34.5103 -86.9239 102° East 485 558 33,000  Level Memphis Center
08:22AM 34.4811 -86.7619 102° East 487 560 33,000 -293 Level Memphis Center
08:23AM 34.4528 -86.6033 102° East 487 560 32,400 -780 Descending Memphis Center
08:24AM 34.4233 -86.4442 103° East 487 560 31,400 -968 Descending Memphis Center
08:25AM 34.3942 -86.2847 102° East 487 560 30,400 -1,024 Descending Memphis Center
08:26AM 34.3633 -86.1150 102° East 482 555 29,300 -1,736 Descending Atlanta Center
08:27AM 34.3219 -85.9603 108° East 482 555 26,900 -2,500 Descending Atlanta Center
08:28AM 34.2636 -85.8208 117° Southeast 471 542 24,300 -2,550 Descending Atlanta Center
08:29AM 34.2092 -85.6792 115° Southeast 445 512 21,800 -2,300 Descending Atlanta Center
08:30AM 34.1583 -85.5650 118° Southeast 409 471 19,700 -2,400 Descending Atlanta Center
08:31AM 34.1136 -85.4614 118° Southeast 359 413 17,000 -2,550 Descending Atlanta Center
08:32AM 34.0689 -85.3578 117° Southeast 348 400 14,600 -2,400 Descending Atlanta Center
08:33AM 34.0242 -85.2569 118° Southeast 343 395 12,200 -1,300 Descending Atlanta Center
08:34AM 33.9814 -85.1511 116° Southeast 349 402 12,000 -400 Descending Atlanta Center
08:35AM 33.9425 -85.0631 118° Southeast 344 396 11,400 -1,050 Descending Atlanta Center
08:36AM 33.8867 -84.9772 128° Southeast 329 379 9,900 -1,200 Descending Atlanta Center
08:37AM 33.8161 -84.9389 156° South 288 331 9,000 -800 Descending Atlanta Center
08:38AM 33.7411 -84.9031 158° South 288 331 8,300 -800 Descending Atlanta Center
08:39AM 33.6661 -84.8775 164° South 288 331 7,400 -950 Descending Atlanta Center
08:40AM 33.6311 -84.8172 125° Southeast 227 261 6,400 -958 Descending Atlanta Center
08:41AM 33.6333 -84.7167 88° East 188 216 5,100 -875 Descending Atlanta TRACON
08:42AM 33.6333 -84.6500 90° East 175 201 4,300 -800 Descending Atlanta TRACON
08:43AM 33.6333 -84.6000 90° East 172 198 3,500 -850 Descending Atlanta TRACON
08:44AM 33.6333 -84.5333 90° East 157 181 2,600 -789 Descending Atlanta TRACON
08:45AM 33.6333 -84.5000 90° East 114 131 2,000 -737 Descending Atlanta TRACON
08:46AM 33.6333 -84.4500 90° East 144 166 1,200 -800 Descending Atlanta TRACON